Time;durP1;ratioP1;P1;durP2;ratioP2;P2;SDS_P1;SDS_P2;PMS_P1;PMS_P2;Temp;Humidity;BMP_temperature;BMP_pressure;BME280_temperature;BME280_humidity;BME280_pressure;Samples;Min_cycle;Max_cycle;Signal;HPM_P1;HPM_P2
2023/10/16 00:01:38;;;;;;;0.90;0.63;;;;;;;5.20;85.16;101388.63;5026514;28;20215;-71
2023/10/16 00:04:06;;;;;;;6.80;0.80;;;;;;;5.19;85.42;101392.25;5032599;28;20638;-72
2023/10/16 00:06:34;;;;;;;2.50;0.70;;;;;;;5.16;85.41;101389.41;5031477;28;20280;-72
2023/10/16 00:09:10;;;;;;;3.13;0.93;;;;;;;5.14;85.61;101392.28;5026444;28;20218;-72
2023/10/16 00:11:37;;;;;;;2.80;0.80;;;;;;;5.13;85.77;101384.72;5027326;28;20788;-72
2023/10/16 00:14:14;;;;;;;1.40;0.77;;;;;;;5.09;85.77;101381.06;5030513;28;20241;-72
2023/10/16 00:16:44;;;;;;;1.07;0.57;;;;;;;5.06;86.25;101385.00;5028677;28;20214;-71
2023/10/16 00:19:11;;;;;;;1.30;0.83;;;;;;;5.04;86.27;101378.47;5031433;28;20214;-71
2023/10/16 00:21:43;;;;;;;2.50;0.90;;;;;;;5.00;85.61;101380.06;5027905;28;20223;-72
2023/10/16 00:24:10;;;;;;;2.27;0.97;;;;;;;4.97;85.79;101376.16;5032787;28;20318;-72
2023/10/16 00:26:36;;;;;;;1.93;0.80;;;;;;;4.97;86.11;101370.16;5029140;28;20198;-72
2023/10/16 00:29:16;;;;;;;2.57;0.77;;;;;;;4.97;85.88;101370.91;5030934;28;20248;-72
2023/10/16 00:31:44;;;;;;;1.57;0.90;;;;;;;4.96;86.31;101371.19;5032307;28;20215;-71
2023/10/16 00:34:19;;;;;;;2.90;1.10;;;;;;;4.97;86.57;101375.38;5027729;28;20306;-72
2023/10/16 00:36:46;;;;;;;1.90;1.00;;;;;;;4.95;86.79;101372.22;5030204;28;20465;-72
2023/10/16 00:39:14;;;;;;;3.97;1.53;;;;;;;4.92;86.30;101376.16;5030795;28;20204;-71
2023/10/16 00:41:40;;;;;;;1.30;0.80;;;;;;;4.93;86.83;101372.50;5028941;28;20670;-71
2023/10/16 00:44:07;;;;;;;2.63;0.90;;;;;;;4.95;86.83;101387.94;5031927;28;20822;-72
2023/10/16 00:46:36;;;;;;;3.43;1.10;;;;;;;4.93;86.35;101379.59;5029807;28;20211;-72
2023/10/16 00:49:05;;;;;;;4.13;1.00;;;;;;;4.92;86.67;101381.41;5028507;28;20220;-72
2023/10/16 00:51:33;;;;;;;1.87;1.00;;;;;;;4.92;86.73;101378.03;5032878;28;20304;-72
2023/10/16 00:54:01;;;;;;;4.90;1.10;;;;;;;4.93;86.86;101382.97;5034219;28;20230;-72
2023/10/16 00:56:28;;;;;;;2.67;1.00;;;;;;;4.92;87.23;101391.88;5030093;28;20571;-72
2023/10/16 00:58:56;;;;;;;4.30;1.00;;;;;;;4.92;87.26;101389.25;5042858;28;20238;-72
2023/10/16 01:01:24;;;;;;;4.07;0.90;;;;;;;4.92;87.46;101389.25;5037003;28;20350;-71
2023/10/16 01:03:56;;;;;;;4.23;0.97;;;;;;;4.92;87.58;101386.63;5033025;28;20305;-71
2023/10/16 01:06:36;;;;;;;4.57;1.60;;;;;;;4.91;87.12;101385.06;5031267;28;20419;-72
2023/10/16 01:09:07;;;;;;;2.30;1.33;;;;;;;4.92;87.29;101389.25;5030748;28;20218;-71
2023/10/16 01:11:37;;;;;;;2.53;1.60;;;;;;;4.91;87.91;101386.91;5029042;28;20693;-72
2023/10/16 01:14:04;;;;;;;4.57;1.20;;;;;;;4.89;87.37;101389.81;5031039;28;20286;-70
2023/10/16 01:16:30;;;;;;;4.27;1.10;;;;;;;4.87;87.37;101394.50;5033851;28;20245;-72
2023/10/16 01:19:00;;;;;;;4.13;0.90;;;;;;;4.87;87.30;101397.13;5033868;28;20202;-72
2023/10/16 01:21:31;;;;;;;2.90;0.90;;;;;;;4.87;87.86;101393.75;5028118;28;20230;-72
2023/10/16 01:24:03;;;;;;;3.03;1.07;;;;;;;4.85;87.87;101385.34;5031454;28;20226;-71
2023/10/16 01:26:29;;;;;;;3.27;1.00;;;;;;;4.81;87.74;101385.13;5029587;28;20215;-72
2023/10/16 01:28:56;;;;;;;4.37;1.13;;;;;;;4.82;87.95;101391.91;5031975;28;20302;-72
2023/10/16 01:31:22;;;;;;;3.93;0.80;;;;;;;4.84;88.13;101389.81;5043313;28;20207;-72
2023/10/16 01:33:51;;;;;;;3.43;0.90;;;;;;;4.85;88.16;101393.22;5028847;28;20246;-72
2023/10/16 01:36:17;;;;;;;1.63;0.90;;;;;;;4.82;87.84;101389.28;5022595;28;20294;-72
2023/10/16 01:38:43;;;;;;;1.67;0.93;;;;;;;4.83;88.11;101393.47;5027770;28;20313;-71
2023/10/16 01:41:13;;;;;;;2.40;1.10;;;;;;;4.85;88.31;101390.59;5039686;28;20214;-72
2023/10/16 01:43:40;;;;;;;3.50;0.80;;;;;;;4.85;88.02;101396.63;5024736;28;20215;-72
2023/10/16 01:46:08;;;;;;;4.67;1.23;;;;;;;4.84;87.76;101389.81;5026067;28;20223;-71
2023/10/16 01:48:37;;;;;;;3.30;1.00;;;;;;;4.85;88.10;101393.22;5026776;28;20200;-71
2023/10/16 01:51:05;;;;;;;3.50;1.40;;;;;;;4.84;88.62;101394.25;5030923;28;20215;-71
2023/10/16 01:53:36;;;;;;;1.20;0.90;;;;;;;4.85;88.42;101393.22;5029709;28;20238;-72
2023/10/16 01:56:12;;;;;;;0.97;0.87;;;;;;;4.79;88.20;101387.22;5027954;28;20219;-72
2023/10/16 01:58:41;;;;;;;4.37;1.03;;;;;;;4.74;87.88;101387.25;5025934;28;20219;-72
2023/10/16 02:01:09;;;;;;;5.47;0.97;;;;;;;4.73;88.19;101390.13;5034073;28;20321;-71
2023/10/16 02:03:35;;;;;;;3.57;1.07;;;;;;;4.69;88.36;101391.69;5034212;28;20246;-72
2023/10/16 02:06:02;;;;;;;5.70;1.00;;;;;;;4.65;88.46;101388.84;5035739;28;20314;-71
2023/10/16 02:08:28;;;;;;;1.17;1.00;;;;;;;4.62;88.52;101385.97;5026750;28;20680;-71
2023/10/16 02:10:55;;;;;;;1.53;1.00;;;;;;;4.58;88.37;101390.94;5033860;28;20230;-71
2023/10/16 02:13:23;;;;;;;4.90;0.90;;;;;;;4.57;88.69;101393.81;5029330;28;20230;-71
2023/10/16 02:15:51;;;;;;;5.13;1.30;;;;;;;4.53;88.71;101398.00;5032284;28;20306;-72
2023/10/16 02:18:22;;;;;;;1.23;0.80;;;;;;;4.52;89.00;101392.00;5033595;28;20207;-72
2023/10/16 02:20:49;;;;;;;1.37;0.90;;;;;;;4.52;89.05;101389.38;5034815;28;20203;-72
2023/10/16 02:23:16;;;;;;;5.20;1.30;;;;;;;4.50;89.56;101388.09;5028611;28;20705;-71
2023/10/16 02:25:43;;;;;;;1.47;1.03;;;;;;;4.46;89.02;101394.91;5030090;28;20223;-72
2023/10/16 02:28:10;;;;;;;2.83;0.90;;;;;;;4.46;89.42;101392.28;5025817;28;20200;-72
2023/10/16 02:30:41;;;;;;;6.70;1.63;;;;;;;4.42;89.11;101394.66;5028465;28;20806;-72
2023/10/16 02:33:15;;;;;;;1.57;0.83;;;;;;;4.42;89.22;101386.81;5029961;28;20701;-72
2023/10/16 02:35:47;;;;;;;3.87;0.90;;;;;;;4.39;89.26;101391.75;5030129;28;20665;-71
2023/10/16 02:38:14;;;;;;;2.33;0.80;;;;;;;4.36;89.14;101387.84;5025129;28;22160;-71
2023/10/16 02:40:43;;;;;;;2.73;0.97;;;;;;;4.34;88.94;101397.00;5025421;28;20624;-71
2023/10/16 02:43:18;;;;;;;6.10;1.00;;;;;;;4.31;89.19;101392.31;5028708;28;21069;-71
2023/10/16 02:45:47;;;;;;;3.13;1.23;;;;;;;4.33;89.60;101391.00;5026216;28;20225;-72
2023/10/16 02:48:16;;;;;;;7.37;1.33;;;;;;;4.29;89.45;101389.97;5023310;28;20207;-72
2023/10/16 02:50:49;;;;;;;2.07;1.40;;;;;;;4.29;89.79;101395.19;5024995;28;20215;-71
2023/10/16 02:53:16;;;;;;;3.33;0.97;;;;;;;4.26;89.36;101400.16;5022495;28;20249;-72
2023/10/16 02:55:45;;;;;;;2.57;0.87;;;;;;;4.24;89.73;101394.41;5026817;28;20212;-72
2023/10/16 02:58:11;;;;;;;1.27;1.00;;;;;;;4.23;89.45;101398.06;5026945;28;20850;-72
2023/10/16 03:00:43;;;;;;;3.70;1.10;;;;;;;4.22;89.64;101401.72;5027395;28;20211;-71
2023/10/16 03:03:10;;;;;;;3.63;1.10;;;;;;;4.25;90.06;101404.59;5024296;28;20234;-72
2023/10/16 03:05:38;;;;;;;3.00;0.90;;;;;;;4.26;90.29;101410.63;5040882;28;20231;-71
2023/10/16 03:08:08;;;;;;;1.13;0.60;;;;;;;4.28;91.14;101404.09;5026268;28;20212;-72
2023/10/16 03:10:36;;;;;;;4.27;0.80;;;;;;;4.24;90.23;101407.47;5026476;28;20203;-71
2023/10/16 03:13:05;;;;;;;2.07;0.97;;;;;;;4.29;91.33;101410.06;5025117;28;20234;-71
2023/10/16 03:15:38;;;;;;;2.70;1.07;;;;;;;4.31;91.47;101414.00;5022332;28;20207;-72
2023/10/16 03:18:09;;;;;;;1.70;0.90;;;;;;;4.34;91.13;101421.31;5025686;28;20555;-71
2023/10/16 03:20:36;;;;;;;1.47;0.93;;;;;;;4.40;91.55;101422.13;5024786;28;20223;-71
2023/10/16 03:23:07;;;;;;;2.90;1.00;;;;;;;4.47;91.77;101425.22;5020617;28;20235;-72
2023/10/16 03:28:14;;;;;;;1.37;1.00;;;;;;;4.54;91.76;101421.28;5034706;28;20693;-72
2023/10/16 03:30:42;;;;;;;2.23;1.00;;;;;;;4.59;91.08;101425.72;5026049;28;21140;-71
2023/10/16 03:33:13;;;;;;;3.20;1.10;;;;;;;4.64;91.16;101416.03;5023374;28;20704;-72
2023/10/16 03:35:43;;;;;;;4.10;1.50;;;;;;;4.69;90.55;101426.50;5020500;28;20789;-71
2023/10/16 03:38:11;;;;;;;3.37;1.23;;;;;;;4.75;90.37;101428.03;5021825;28;20221;-72
2023/10/16 03:40:38;;;;;;;3.30;1.17;;;;;;;4.82;90.32;101423.31;5024764;28;20192;-72
2023/10/16 03:43:05;;;;;;;8.73;1.30;;;;;;;4.88;90.23;101427.47;5019475;28;20262;-72
2023/10/16 03:45:32;;;;;;;8.33;1.20;;;;;;;4.91;89.82;101426.94;5024718;28;20227;-71
2023/10/16 03:47:58;;;;;;;3.43;1.27;;;;;;;4.97;89.46;101423.25;5026368;28;20257;-71
2023/10/16 03:50:34;;;;;;;2.87;1.13;;;;;;;5.02;89.69;101425.09;5024454;28;20295;-72
2023/10/16 03:53:01;;;;;;;3.17;1.00;;;;;;;5.04;89.57;101418.53;5019910;28;20245;-71
2023/10/16 03:55:32;;;;;;;2.60;1.07;;;;;;;5.07;89.10;101417.97;5024463;28;20274;-72
2023/10/16 03:57:58;;;;;;;4.13;1.07;;;;;;;5.10;88.80;101419.28;5021128;28;20195;-72
2023/10/16 04:00:26;;;;;;;2.40;0.90;;;;;;;5.13;88.64;101411.66;5021149;28;20206;-72
2023/10/16 04:02:52;;;;;;;5.13;1.30;;;;;;;5.14;88.11;101413.22;5016907;28;20231;-71
2023/10/16 04:05:33;;;;;;;2.43;1.10;;;;;;;5.11;87.58;101411.16;5024251;28;20773;-72
2023/10/16 04:08:01;;;;;;;5.70;1.07;;;;;;;5.08;87.70;101409.06;5023991;28;20204;-70
2023/10/16 04:10:29;;;;;;;4.03;1.13;;;;;;;5.05;87.18;101407.00;5023525;28;20203;-72
2023/10/16 04:12:55;;;;;;;1.77;1.10;;;;;;;5.03;87.46;101405.72;5022430;28;20243;-72
2023/10/16 04:15:37;;;;;;;5.60;1.20;;;;;;;4.97;87.51;101404.94;5020269;28;20409;-71
2023/10/16 04:18:04;;;;;;;5.13;1.63;;;;;;;4.95;87.52;101399.19;5019850;28;20215;-72
2023/10/16 04:20:43;;;;;;;4.27;1.00;;;;;;;4.91;87.86;101400.78;5022136;28;20200;-72
2023/10/16 04:23:29;;;;;;;2.77;0.90;;;;;;;4.85;87.55;101399.22;5024445;28;20231;-73
2023/10/16 04:29:20;;;;;;;3.77;1.00;;;;;;;4.78;88.05;101395.34;5023888;28;20294;-71
2023/10/16 04:31:43;;;;;;;4.03;1.00;;;;;;;4.73;88.14;101396.16;5025271;28;21511;-72
2023/10/16 04:34:24;;;;;;;2.03;1.00;;;;;;;4.69;88.47;101402.16;5022572;28;20224;-72
2023/10/16 04:36:52;;;;;;;3.70;1.23;;;;;;;4.62;88.35;101402.44;5028143;28;20254;-72
2023/10/16 04:40:28;;;;;;;3.83;1.13;;;;;;;4.56;88.24;101400.88;5026377;28;20211;-72
2023/10/16 04:45:00;;;;;;;2.27;0.90;;;;;;;4.52;89.64;101402.44;4995256;28;20222;-72
2023/10/16 04:47:28;;;;;;;5.43;1.30;;;;;;;4.45;89.77;101399.34;5021939;28;20223;-72
2023/10/16 04:49:59;;;;;;;3.60;0.90;;;;;;;4.40;89.67;101404.56;5027090;28;20212;-72
2023/10/16 04:53:06;;;;;;;3.40;1.07;;;;;;;4.39;90.34;101403.00;5024347;28;20218;-71
2023/10/16 04:58:27;;;;;;;1.57;1.10;;;;;;;4.35;91.72;101401.19;5026172;28;20212;-72
2023/10/16 05:00:56;;;;;;;2.27;1.23;;;;;;;4.30;91.97;101396.75;5027231;28;20219;-72
2023/10/16 05:03:23;;;;;;;5.03;1.30;;;;;;;4.28;92.17;101395.44;5032812;28;20261;-72
2023/10/16 05:05:56;;;;;;;3.70;1.03;;;;;;;4.25;92.29;101396.75;5030061;28;20318;-72
2023/10/16 05:08:38;;;;;;;2.10;1.07;;;;;;;4.29;93.08;101397.81;5029196;28;20807;-72
2023/10/16 05:13:56;;;;;;;1.73;1.17;;;;;;;4.20;92.72;101401.22;5031249;28;20250;-72
2023/10/16 05:16:30;;;;;;;7.20;1.40;;;;;;;4.23;93.11;101411.13;5030589;28;20265;-72
2023/10/16 05:19:03;;;;;;;5.23;1.30;;;;;;;4.20;93.61;101409.06;5029870;28;20217;-72
2023/10/16 06:16:20;;;;;;;6.90;2.00;;;;;;;4.01;94.96;101426.31;5041581;28;20211;-71
2023/10/16 06:18:49;;;;;;;3.90;1.70;;;;;;;4.01;94.80;101424.50;5039825;28;20203;-72
2023/10/16 06:21:15;;;;;;;8.43;1.60;;;;;;;4.02;94.28;101433.09;5037860;28;20211;-71
2023/10/16 06:23:48;;;;;;;6.43;1.80;;;;;;;4.06;94.58;101436.75;5033687;28;20216;-71
2023/10/16 06:26:15;;;;;;;2.83;1.67;;;;;;;4.06;93.83;101445.41;5035407;28;20270;-71
2023/10/16 06:28:49;;;;;;;3.43;1.80;;;;;;;4.10;93.95;101443.03;5036762;28;20697;-71
2023/10/16 06:31:22;;;;;;;4.07;1.40;;;;;;;4.14;93.81;101446.72;5037686;28;20256;-72
2023/10/16 06:33:53;;;;;;;2.77;1.60;;;;;;;4.17;93.40;101441.72;5037199;28;20230;-72
2023/10/16 06:36:20;;;;;;;8.33;2.20;;;;;;;4.25;93.29;101445.66;5037108;28;20242;-72
2023/10/16 06:38:47;;;;;;;3.97;1.90;;;;;;;4.29;93.62;101439.63;5036505;28;20222;-71
2023/10/16 06:41:15;;;;;;;2.97;1.83;;;;;;;4.35;93.44;101448.25;5040727;28;20203;-72
2023/10/16 06:43:42;;;;;;;9.20;2.57;;;;;;;4.40;93.16;101446.41;5038217;28;20277;-72
2023/10/16 06:46:10;;;;;;;3.83;1.73;;;;;;;4.47;92.77;101451.38;5037620;28;20227;-71
2023/10/16 06:48:38;;;;;;;9.53;1.83;;;;;;;4.54;92.33;101455.28;5040016;28;20778;-71
2023/10/16 06:51:14;;;;;;;1.67;1.47;;;;;;;4.60;92.34;101450.81;5038057;28;20271;-72
2023/10/16 06:53:41;;;;;;;6.90;1.97;;;;;;;4.68;92.21;101461.56;5038865;28;20241;-71
2023/10/16 06:56:07;;;;;;;5.47;1.87;;;;;;;4.75;92.00;101456.03;5041890;28;20199;-70
2023/10/16 06:58:34;;;;;;;8.07;2.03;;;;;;;4.84;91.87;101462.28;5037348;28;20211;-72
2023/10/16 07:01:01;;;;;;;4.23;1.87;;;;;;;4.90;91.10;101454.16;5035556;28;20195;-71
2023/10/16 07:03:28;;;;;;;4.73;1.70;;;;;;;5.00;91.19;101456.75;5034675;28;20298;-72
2023/10/16 07:05:54;;;;;;;6.30;1.90;;;;;;;5.09;91.34;101454.38;5041600;28;20278;-71
2023/10/16 07:08:22;;;;;;;8.10;2.20;;;;;;;5.26;90.51;101462.66;5037562;28;20206;-70
2023/10/16 07:10:50;;;;;;;8.33;1.80;;;;;;;5.35;90.64;101458.44;5038446;28;20676;-70
2023/10/16 07:13:26;;;;;;;5.67;1.83;;;;;;;5.46;90.10;101460.75;5037367;28;20219;-71
2023/10/16 07:15:56;;;;;;;5.93;2.00;;;;;;;5.61;89.17;101460.69;5039463;28;20205;-70
2023/10/16 07:18:24;;;;;;;5.43;2.33;;;;;;;5.71;89.36;101465.88;5034975;28;20202;-71
2023/10/16 07:20:59;;;;;;;9.87;2.10;;;;;;;5.81;88.51;101450.06;5034631;28;20203;-70
2023/10/16 07:23:29;;;;;;;6.93;2.00;;;;;;;5.91;87.44;101451.88;5039315;28;20226;-71
2023/10/16 07:25:59;;;;;;;9.73;3.10;;;;;;;5.98;87.49;101445.25;5035939;28;20279;-71
2023/10/16 07:28:29;;;;;;;6.27;2.17;;;;;;;6.06;86.54;101449.13;5037446;28;20228;-71
2023/10/16 07:30:57;;;;;;;4.43;1.70;;;;;;;6.15;86.59;101445.63;5036791;28;20212;-71
2023/10/16 07:33:24;;;;;;;5.70;2.53;;;;;;;6.27;86.41;101445.28;5033080;28;20226;-71
2023/10/16 07:35:51;;;;;;;4.40;1.80;;;;;;;6.36;86.17;101438.38;5032813;28;20561;-71
2023/10/16 07:38:20;;;;;;;2.57;2.00;;;;;;;6.46;85.52;101441.69;5037740;28;20214;-71
2023/10/16 07:40:51;;;;;;;3.43;2.30;;;;;;;6.55;85.39;101453.16;5037120;28;20235;-71
2023/10/16 07:43:17;;;;;;;4.67;2.10;;;;;;;6.66;84.29;101453.81;5033668;28;20228;-71
2023/10/16 07:45:45;;;;;;;10.07;2.20;;;;;;;6.76;84.79;101458.97;5035515;28;20215;-71
2023/10/16 07:48:20;;;;;;;7.43;2.30;;;;;;;6.89;84.74;101456.47;5035777;28;20770;-71
2023/10/16 07:50:48;;;;;;;3.67;1.90;;;;;;;7.00;84.24;101465.03;5040395;28;20215;-71
2023/10/16 07:53:17;;;;;;;7.60;2.00;;;;;;;7.10;83.11;101462.28;5037735;28;20235;-71
2023/10/16 07:55:50;;;;;;;6.13;2.20;;;;;;;7.20;83.52;101467.44;5035740;28;20231;-71
2023/10/16 07:58:23;;;;;;;2.80;1.97;;;;;;;7.28;83.22;101454.44;5035724;28;20207;-71
2023/10/16 08:00:59;;;;;;;1.97;1.73;;;;;;;7.35;81.42;101467.25;5038890;28;20215;-71
2023/10/16 08:03:26;;;;;;;4.03;1.77;;;;;;;7.42;80.87;101460.56;5037142;28;20225;-71
2023/10/16 08:05:53;;;;;;;3.43;1.83;;;;;;;7.47;81.32;101462.34;5036666;28;20261;-71
2023/10/16 08:08:25;;;;;;;7.37;1.90;;;;;;;7.51;82.54;101473.88;5040255;28;20704;-71
2023/10/16 08:10:52;;;;;;;3.30;1.80;;;;;;;7.57;80.61;101468.22;5039506;28;20687;-70
2023/10/16 08:13:24;;;;;;;2.17;1.97;;;;;;;7.60;80.06;101475.56;5043843;28;20227;-71
2023/10/16 08:15:51;;;;;;;5.63;1.50;;;;;;;7.72;80.62;101472.53;5042407;28;20227;-71
2023/10/16 08:18:19;;;;;;;6.47;2.00;;;;;;;7.82;80.19;101475.00;5043186;28;20230;-71
2023/10/16 08:20:50;;;;;;;4.83;1.80;;;;;;;7.93;79.46;101476.41;5044350;28;20568;-70
2023/10/16 08:23:16;;;;;;;4.97;2.10;;;;;;;8.05;79.95;101474.13;5044423;28;20224;-70
2023/10/16 08:25:42;;;;;;;3.90;2.73;;;;;;;8.18;80.12;101483.94;5041681;28;20203;-70
2023/10/16 08:28:21;;;;;;;4.40;2.50;;;;;;;8.28;78.66;101479.31;5039290;28;20216;-71
2023/10/16 08:30:53;;;;;;;4.30;1.90;;;;;;;8.37;78.59;101482.06;5040698;28;20310;-71
2023/10/16 08:33:28;;;;;;;5.73;2.23;;;;;;;8.45;77.36;101486.66;5041842;28;20229;-71
2023/10/16 08:35:58;;;;;;;4.30;2.10;;;;;;;8.51;77.69;101482.88;5039717;28;20204;-71
2023/10/16 08:38:25;;;;;;;3.83;1.60;;;;;;;8.50;75.73;101486.59;5043682;28;20211;-71
2023/10/16 08:40:57;;;;;;;3.03;1.40;;;;;;;8.52;75.55;101495.75;5042241;28;20456;-71
2023/10/16 08:43:39;;;;;;;2.70;1.63;;;;;;;8.58;76.44;101488.53;5044903;28;20238;-71
2023/10/16 08:46:18;;;;;;;4.07;1.47;;;;;;;8.56;76.05;101475.69;5044803;28;20200;-71
2023/10/16 08:48:45;;;;;;;4.20;1.57;;;;;;;8.56;76.77;101480.94;5039004;28;20195;-71
2023/10/16 08:51:11;;;;;;;4.53;1.80;;;;;;;8.46;74.84;101481.13;5040200;28;20218;-71
2023/10/16 08:53:38;;;;;;;1.90;1.37;;;;;;;8.52;75.73;101489.69;5043765;28;20232;-70
2023/10/16 08:56:08;;;;;;;3.83;1.70;;;;;;;8.50;75.65;101489.97;5044315;28;20213;-71
2023/10/16 08:58:41;;;;;;;3.87;1.60;;;;;;;8.55;77.17;101491.75;5042748;28;20228;-71
2023/10/16 09:01:11;;;;;;;3.67;2.00;;;;;;;8.55;77.18;101489.91;5042455;28;20213;-70
2023/10/16 09:03:39;;;;;;;3.43;1.67;;;;;;;8.57;75.77;101494.88;5040623;28;20229;-70
2023/10/16 09:06:06;;;;;;;2.60;1.33;;;;;;;8.56;75.42;101495.94;5042088;28;20210;-70
2023/10/16 09:08:35;;;;;;;2.00;1.40;;;;;;;8.54;76.52;101496.22;5042095;28;20237;-70
2023/10/16 09:11:05;;;;;;;7.10;1.90;;;;;;;8.62;75.87;101492.94;5040196;28;20203;-69
2023/10/16 09:13:35;;;;;;;3.97;1.80;;;;;;;8.74;76.76;101492.47;5042480;28;20614;-70
2023/10/16 09:16:02;;;;;;;1.60;1.40;;;;;;;8.87;75.31;101492.50;5037667;28;20300;-70
2023/10/16 09:18:31;;;;;;;2.53;1.43;;;;;;;9.05;75.72;101488.19;5042274;28;20233;-71
2023/10/16 09:21:00;;;;;;;7.67;1.60;;;;;;;9.12;75.03;101481.47;5040137;28;20569;-69
2023/10/16 09:23:36;;;;;;;5.73;2.20;;;;;;;9.18;74.49;101482.16;5043025;28;20264;-70
2023/10/16 09:26:06;;;;;;;3.93;1.70;;;;;;;9.18;73.10;101490.06;5041438;28;20232;-71
2023/10/16 09:28:33;;;;;;;3.17;1.63;;;;;;;9.16;73.64;101490.34;5037446;28;20230;-70
2023/10/16 09:31:01;;;;;;;1.60;1.40;;;;;;;9.18;75.07;101490.84;5040476;28;20705;-70
2023/10/16 09:33:32;;;;;;;2.53;1.20;;;;;;;9.19;74.67;101486.34;5038261;28;20234;-71
2023/10/16 09:36:00;;;;;;;4.87;2.10;;;;;;;9.23;74.35;101484.69;5040072;28;20227;-70
2023/10/16 09:38:32;;;;;;;4.93;2.43;;;;;;;9.23;76.62;101488.13;5042853;28;20692;-71
2023/10/16 09:41:37;;;;;;;5.83;2.30;;;;;;;9.22;73.95;101483.91;5039589;28;20629;-70
2023/10/16 09:44:07;;;;;;;9.53;2.40;;;;;;;9.19;72.86;101479.22;5036942;28;20653;-70
2023/10/16 09:46:48;;;;;;;4.20;1.70;;;;;;;9.23;75.33;101492.59;5039182;28;20763;-71
2023/10/16 09:49:21;;;;;;;6.17;1.60;;;;;;;9.27;73.17;101485.66;5038338;28;20703;-70
2023/10/16 09:51:47;;;;;;;3.83;2.30;;;;;;;9.33;73.49;101487.13;5038741;28;20206;-69
2023/10/16 09:54:14;;;;;;;2.73;1.80;;;;;;;9.38;74.22;101479.88;5038872;28;20739;-71
2023/10/16 09:56:48;;;;;;;1.70;1.40;;;;;;;9.43;72.61;101487.69;5043295;28;20302;-70
2023/10/16 09:59:23;;;;;;;2.83;1.30;;;;;;;9.48;72.74;101476.28;5039923;28;20572;-70
2023/10/16 10:01:51;;;;;;;3.83;1.60;;;;;;;9.52;72.27;101488.56;5035941;28;20204;-71
2023/10/16 10:04:24;;;;;;;3.33;1.37;;;;;;;9.56;73.21;101484.25;5035643;28;20234;-70
2023/10/16 10:06:55;;;;;;;6.17;1.50;;;;;;;9.60;71.20;101482.59;5038511;28;20197;-70
2023/10/16 10:09:40;;;;;;;2.67;1.50;;;;;;;9.65;71.86;101486.97;5039522;28;20214;-71
2023/10/16 10:12:28;;;;;;;3.37;1.40;;;;;;;9.73;73.13;101481.00;5040348;28;20203;-70
2023/10/16 10:15:12;;;;;;;1.20;1.10;;;;;;;9.82;72.63;101485.25;5040488;28;20229;-70
2023/10/16 10:17:39;;;;;;;1.93;1.47;;;;;;;9.86;70.20;101480.97;5054772;28;20198;-70
2023/10/16 10:20:18;;;;;;;4.57;1.43;;;;;;;9.89;72.47;101484.84;5040057;28;20580;-70
2023/10/16 10:22:53;;;;;;;5.23;1.60;;;;;;;9.93;69.99;101486.59;5039863;28;20226;-70
2023/10/16 10:25:26;;;;;;;4.13;1.30;;;;;;;9.99;69.53;101484.63;5040398;28;20193;-71
2023/10/16 10:27:56;;;;;;;1.77;1.03;;;;;;;10.05;71.03;101483.47;5037884;28;20228;-70
2023/10/16 10:30:26;;;;;;;5.53;1.27;;;;;;;10.16;69.87;101477.66;5037770;28;20239;-69
2023/10/16 10:32:53;;;;;;;3.23;1.63;;;;;;;10.24;69.30;101474.28;5035734;28;20692;-70
2023/10/16 10:35:26;;;;;;;3.43;1.40;;;;;;;10.32;68.68;101483.31;5035645;28;20270;-70
2023/10/16 10:38:07;;;;;;;5.30;1.50;;;;;;;10.38;68.24;101477.63;5035297;28;20305;-70
2023/10/16 10:40:35;;;;;;;2.97;1.10;;;;;;;10.43;67.30;101471.44;5034640;28;20289;-70
2023/10/16 10:43:03;;;;;;;5.43;1.23;;;;;;;10.51;67.55;101479.41;5035486;28;20622;-70
2023/10/16 10:45:34;;;;;;;4.87;1.13;;;;;;;10.57;68.99;101483.47;5038089;28;20760;-70
2023/10/16 10:48:09;;;;;;;5.93;1.50;;;;;;;10.64;71.56;101475.13;5038724;28;20623;-71
2023/10/16 10:50:39;;;;;;;3.27;1.30;;;;;;;10.76;69.93;101470.81;5037685;28;20202;-70
2023/10/16 10:53:13;;;;;;;3.50;1.17;;;;;;;10.87;68.99;101472.09;5036861;28;20223;-70
2023/10/16 10:55:53;;;;;;;2.80;1.30;;;;;;;10.98;65.97;101467.34;5038852;28;20191;-71
2023/10/16 10:58:23;;;;;;;3.20;0.90;;;;;;;11.05;67.63;101467.66;5034628;28;20278;-71
2023/10/16 11:00:51;;;;;;;2.33;1.03;;;;;;;11.09;65.43;101464.13;5036882;28;20292;-71
2023/10/16 11:03:31;;;;;;;4.43;1.23;;;;;;;11.12;65.43;101466.13;5035545;28;20949;-71
2023/10/16 11:05:59;;;;;;;4.40;1.10;;;;;;;11.18;66.68;101464.13;5035564;28;21122;-71
2023/10/16 11:08:29;;;;;;;2.77;1.20;;;;;;;11.24;65.40;101468.94;5037916;28;20791;-70
2023/10/16 11:10:56;;;;;;;4.40;1.27;;;;;;;11.33;67.24;101472.41;5035763;28;20268;-70
2023/10/16 11:13:26;;;;;;;3.13;1.30;;;;;;;11.38;65.21;101472.25;5036317;28;20230;-70
2023/10/16 11:15:54;;;;;;;1.07;0.90;;;;;;;11.39;67.16;101467.75;5035083;28;20211;-71
2023/10/16 11:18:22;;;;;;;2.67;1.10;;;;;;;11.33;63.02;101466.34;5038346;28;20209;-70
2023/10/16 11:20:49;;;;;;;3.63;1.13;;;;;;;11.39;65.02;101457.19;5036572;28;20214;-70
2023/10/16 11:23:18;;;;;;;4.23;1.07;;;;;;;11.40;65.38;101456.88;5039268;28;20779;-71
2023/10/16 11:25:50;;;;;;;2.23;1.10;;;;;;;11.41;63.92;101460.28;5036880;28;20573;-70
2023/10/16 11:28:20;;;;;;;3.17;0.93;;;;;;;11.47;66.11;101454.53;5029907;28;20622;-71
2023/10/16 11:30:49;;;;;;;5.43;1.10;;;;;;;11.45;63.84;101450.66;5036383;28;20694;-70
2023/10/16 11:33:24;;;;;;;2.13;1.00;;;;;;;11.48;63.52;101457.94;5034948;28;20259;-71
2023/10/16 11:35:51;;;;;;;1.63;0.87;;;;;;;11.46;63.52;101452.19;5033543;28;20229;-71
2023/10/16 11:38:28;;;;;;;4.80;1.03;;;;;;;11.43;64.77;101444.91;5037659;28;20202;-70
2023/10/16 11:40:55;;;;;;;1.57;0.87;;;;;;;11.37;62.35;101451.41;5035122;28;20297;-71
2023/10/16 11:43:22;;;;;;;3.33;1.10;;;;;;;11.40;64.78;101461.38;5030229;28;20242;-70
2023/10/16 11:45:53;;;;;;;3.33;1.40;;;;;;;11.41;63.23;101460.28;5035332;28;20202;-70
2023/10/16 11:48:27;;;;;;;4.67;1.10;;;;;;;11.40;62.96;101456.88;5037590;28;20241;-71
2023/10/16 11:51:02;;;;;;;3.03;0.90;;;;;;;11.42;63.72;101454.69;5034190;28;20210;-71
2023/10/16 11:53:32;;;;;;;2.67;0.90;;;;;;;11.47;63.80;101453.75;5033341;28;20241;-71
2023/10/16 11:55:58;;;;;;;1.70;1.00;;;;;;;11.44;62.51;101446.44;5032296;28;20206;-71
2023/10/16 11:58:24;;;;;;;2.87;1.60;;;;;;;11.44;62.16;101444.56;5034621;28;20233;-71
2023/10/16 12:00:53;;;;;;;6.33;3.00;;;;;;;11.43;61.42;101442.25;5034922;28;20202;-70
2023/10/16 12:03:20;;;;;;;1.30;1.10;;;;;;;11.43;62.76;101448.31;5035819;28;20300;-69
2023/10/16 12:05:46;;;;;;;3.80;1.90;;;;;;;11.38;62.84;101443.16;5035119;28;20214;-70
2023/10/16 12:08:18;;;;;;;2.53;1.07;;;;;;;11.42;63.63;101448.59;5035668;28;20227;-70
2023/10/16 12:10:46;;;;;;;2.73;0.87;;;;;;;11.39;63.91;101446.59;5033360;28;20195;-70
2023/10/16 12:13:14;;;;;;;2.73;1.10;;;;;;;11.34;63.29;101442.22;5037977;28;20617;-70
2023/10/16 12:15:41;;;;;;;2.97;1.30;;;;;;;11.34;64.42;101447.50;5035932;28;20624;-70
2023/10/16 12:18:09;;;;;;;3.53;1.00;;;;;;;11.31;62.94;101444.72;5035141;28;20194;-70
2023/10/16 12:20:37;;;;;;;1.83;0.80;;;;;;;11.31;63.96;101440.22;5036569;28;20210;-70
2023/10/16 12:23:05;;;;;;;1.93;1.40;;;;;;;11.33;64.34;101442.56;5034616;28;20230;-70
2023/10/16 12:25:34;;;;;;;2.80;1.63;;;;;;;11.32;64.69;101452.34;5034548;28;20202;-70
2023/10/16 12:28:02;;;;;;;2.60;1.13;;;;;;;11.31;64.15;101439.41;5032837;28;20315;-69
2023/10/16 12:30:28;;;;;;;2.90;1.20;;;;;;;11.32;63.29;101444.41;5035409;28;20551;-70
2023/10/16 12:32:55;;;;;;;1.57;1.40;;;;;;;11.31;63.33;101436.78;5036868;28;20230;-70
2023/10/16 12:35:22;;;;;;;1.43;0.97;;;;;;;11.32;63.76;101438.31;5035402;28;20206;-70
2023/10/16 12:37:49;;;;;;;2.07;1.00;;;;;;;11.32;63.73;101441.75;5035792;28;20695;-70
2023/10/16 12:40:34;;;;;;;1.33;0.90;;;;;;;11.32;64.25;101427.75;5037554;28;20230;-70
2023/10/16 12:43:01;;;;;;;2.23;1.00;;;;;;;11.32;64.83;101428.53;5033080;28;20230;-70
2023/10/16 12:45:29;;;;;;;4.43;1.17;;;;;;;11.35;65.08;101429.78;5038824;28;20210;-70
2023/10/16 12:47:56;;;;;;;1.57;0.93;;;;;;;11.32;64.57;101435.69;5035822;28;20585;-70
2023/10/16 12:50:24;;;;;;;2.63;0.93;;;;;;;11.27;64.78;101428.69;5034527;28;20212;-69
2023/10/16 12:52:51;;;;;;;3.30;1.00;;;;;;;11.23;63.98;101432.28;5030646;28;20471;-70
2023/10/16 12:55:19;;;;;;;1.83;0.90;;;;;;;11.20;64.69;101443.44;5031175;28;20217;-70